sensor_id;sensor_type;location;lat;lon;timestamp;temperature;humidity
64685;DHT22;51109;47.414;18.954;2022-09-09T00:02:05;18.40;99.90
64685;DHT22;51109;47.414;18.954;2022-09-09T00:04:36;18.40;99.90
64685;DHT22;51109;47.414;18.954;2022-09-09T00:07:47;18.40;99.90
64685;DHT22;51109;47.414;18.954;2022-09-09T00:31:30;18.00;99.90
64685;DHT22;51109;47.414;18.954;2022-09-09T00:34:16;17.90;99.90
64685;DHT22;51109;47.414;18.954;2022-09-09T00:36:44;17.90;99.90
64685;DHT22;51109;47.414;18.954;2022-09-09T00:39:31;17.90;99.90
64685;DHT22;51109;47.414;18.954;2022-09-09T00:42:23;17.90;99.90
64685;DHT22;51109;47.414;18.954;2022-09-09T00:47:53;17.90;99.90
64685;DHT22;51109;47.414;18.954;2022-09-09T00:53:02;17.90;99.90
64685;DHT22;51109;47.414;18.954;2022-09-09T00:58:30;17.80;99.90
64685;DHT22;51109;47.414;18.954;2022-09-09T01:01:11;17.80;99.90
64685;DHT22;51109;47.414;18.954;2022-09-09T01:17:16;17.70;99.90
64685;DHT22;51109;47.414;18.954;2022-09-09T01:25:18;17.70;99.90
64685;DHT22;51109;47.414;18.954;2022-09-09T01:27:46;17.80;99.90
64685;DHT22;51109;47.414;18.954;2022-09-09T01:30:16;17.80;99.90
64685;DHT22;51109;47.414;18.954;2022-09-09T01:32:43;17.90;99.90
64685;DHT22;51109;47.414;18.954;2022-09-09T01:35:15;17.90;99.90
64685;DHT22;51109;47.414;18.954;2022-09-09T01:37:43;17.90;99.90
64685;DHT22;51109;47.414;18.954;2022-09-09T01:40:09;17.80;99.90
64685;DHT22;51109;47.414;18.954;2022-09-09T01:42:35;17.80;99.90
64685;DHT22;51109;47.414;18.954;2022-09-09T01:45:01;17.80;99.90
64685;DHT22;51109;47.414;18.954;2022-09-09T01:47:27;17.80;99.90
64685;DHT22;51109;47.414;18.954;2022-09-09T01:49:53;17.70;99.90
64685;DHT22;51109;47.414;18.954;2022-09-09T01:52:18;17.70;99.90
64685;DHT22;51109;47.414;18.954;2022-09-09T01:54:44;17.70;99.90
64685;DHT22;51109;47.414;18.954;2022-09-09T01:57:23;17.70;99.90
64685;DHT22;51109;47.414;18.954;2022-09-09T02:02:32;17.70;99.90
64685;DHT22;51109;47.414;18.954;2022-09-09T02:10:09;17.50;99.90
64685;DHT22;51109;47.414;18.954;2022-09-09T02:12:41;17.40;99.90
64685;DHT22;51109;47.414;18.954;2022-09-09T02:17:58;17.30;99.90
64685;DHT22;51109;47.414;18.954;2022-09-09T02:20:27;17.30;99.90
64685;DHT22;51109;47.414;18.954;2022-09-09T02:22:56;17.30;99.90
64685;DHT22;51109;47.414;18.954;2022-09-09T02:25:24;17.30;99.90
64685;DHT22;51109;47.414;18.954;2022-09-09T02:27:51;17.30;99.90
64685;DHT22;51109;47.414;18.954;2022-09-09T02:30:18;17.30;99.90
64685;DHT22;51109;47.414;18.954;2022-09-09T02:32:47;17.20;99.90
64685;DHT22;51109;47.414;18.954;2022-09-09T02:35:19;17.20;99.90
64685;DHT22;51109;47.414;18.954;2022-09-09T02:37:46;17.30;99.90
64685;DHT22;51109;47.414;18.954;2022-09-09T02:40:14;17.30;99.90
64685;DHT22;51109;47.414;18.954;2022-09-09T02:42:45;17.30;99.90
64685;DHT22;51109;47.414;18.954;2022-09-09T02:45:15;17.30;99.90
64685;DHT22;51109;47.414;18.954;2022-09-09T02:47:55;17.30;99.90
64685;DHT22;51109;47.414;18.954;2022-09-09T02:50:39;17.30;99.90
64685;DHT22;51109;47.414;18.954;2022-09-09T02:53:17;17.30;99.90
64685;DHT22;51109;47.414;18.954;2022-09-09T02:55:48;17.30;99.90
64685;DHT22;51109;47.414;18.954;2022-09-09T02:58:17;17.40;99.90
64685;DHT22;51109;47.414;18.954;2022-09-09T03:00:49;17.50;99.90
64685;DHT22;51109;47.414;18.954;2022-09-09T03:03:15;17.60;99.90
64685;DHT22;51109;47.414;18.954;2022-09-09T03:05:43;17.70;99.90
64685;DHT22;51109;47.414;18.954;2022-09-09T03:08:09;17.80;99.90
64685;DHT22;51109;47.414;18.954;2022-09-09T03:10:35;17.80;99.90
64685;DHT22;51109;47.414;18.954;2022-09-09T03:13:03;17.80;99.90
64685;DHT22;51109;47.414;18.954;2022-09-09T03:15:32;17.60;99.90
64685;DHT22;51109;47.414;18.954;2022-09-09T03:17:58;17.50;99.90
64685;DHT22;51109;47.414;18.954;2022-09-09T03:20:29;17.50;99.90
64685;DHT22;51109;47.414;18.954;2022-09-09T03:22:56;17.50;99.90
64685;DHT22;51109;47.414;18.954;2022-09-09T03:25:23;17.50;99.90
64685;DHT22;51109;47.414;18.954;2022-09-09T03:27:50;17.40;99.90
64685;DHT22;51109;47.414;18.954;2022-09-09T03:30:18;17.40;99.90
64685;DHT22;51109;47.414;18.954;2022-09-09T03:32:44;17.40;99.90
64685;DHT22;51109;47.414;18.954;2022-09-09T03:35:10;17.40;99.90
64685;DHT22;51109;47.414;18.954;2022-09-09T03:37:36;17.40;99.90
64685;DHT22;51109;47.414;18.954;2022-09-09T03:40:05;17.40;99.90
64685;DHT22;51109;47.414;18.954;2022-09-09T03:42:31;17.40;99.90
64685;DHT22;51109;47.414;18.954;2022-09-09T03:44:57;17.40;99.90
64685;DHT22;51109;47.414;18.954;2022-09-09T03:47:24;17.40;99.90
64685;DHT22;51109;47.414;18.954;2022-09-09T03:49:51;17.40;99.90
64685;DHT22;51109;47.414;18.954;2022-09-09T03:52:17;17.30;99.90
64685;DHT22;51109;47.414;18.954;2022-09-09T03:54:43;17.30;99.90
64685;DHT22;51109;47.414;18.954;2022-09-09T03:57:09;17.20;99.90
64685;DHT22;51109;47.414;18.954;2022-09-09T03:59:36;17.10;99.90
64685;DHT22;51109;47.414;18.954;2022-09-09T04:02:03;17.00;99.90
64685;DHT22;51109;47.414;18.954;2022-09-09T04:04:29;17.10;99.90
64685;DHT22;51109;47.414;18.954;2022-09-09T04:06:55;17.00;99.90
64685;DHT22;51109;47.414;18.954;2022-09-09T04:09:21;17.00;99.90
64685;DHT22;51109;47.414;18.954;2022-09-09T04:11:47;17.00;99.90
64685;DHT22;51109;47.414;18.954;2022-09-09T04:14:13;16.90;99.90
64685;DHT22;51109;47.414;18.954;2022-09-09T04:16:39;16.90;99.90
64685;DHT22;51109;47.414;18.954;2022-09-09T04:19:08;16.90;99.90
64685;DHT22;51109;47.414;18.954;2022-09-09T04:21:34;16.80;99.90
64685;DHT22;51109;47.414;18.954;2022-09-09T04:24:00;16.80;99.90
64685;DHT22;51109;47.414;18.954;2022-09-09T04:26:26;16.80;99.90
64685;DHT22;51109;47.414;18.954;2022-09-09T04:28:52;16.80;99.90
64685;DHT22;51109;47.414;18.954;2022-09-09T04:31:20;16.80;99.90
64685;DHT22;51109;47.414;18.954;2022-09-09T04:33:49;16.90;99.90
64685;DHT22;51109;47.414;18.954;2022-09-09T04:36:16;16.90;99.90
64685;DHT22;51109;47.414;18.954;2022-09-09T04:38:42;16.90;99.90
64685;DHT22;51109;47.414;18.954;2022-09-09T04:41:10;17.00;99.90
64685;DHT22;51109;47.414;18.954;2022-09-09T04:43:37;17.00;99.90
64685;DHT22;51109;47.414;18.954;2022-09-09T04:46:04;17.00;99.90
64685;DHT22;51109;47.414;18.954;2022-09-09T04:48:30;17.00;99.90
64685;DHT22;51109;47.414;18.954;2022-09-09T04:51:03;16.90;99.90
64685;DHT22;51109;47.414;18.954;2022-09-09T04:53:30;16.80;99.90
64685;DHT22;51109;47.414;18.954;2022-09-09T04:56:04;16.90;99.90
64685;DHT22;51109;47.414;18.954;2022-09-09T04:58:30;16.80;99.90
64685;DHT22;51109;47.414;18.954;2022-09-09T05:01:07;16.90;99.90
64685;DHT22;51109;47.414;18.954;2022-09-09T05:03:34;16.80;99.90
64685;DHT22;51109;47.414;18.954;2022-09-09T05:06:11;16.90;99.90
64685;DHT22;51109;47.414;18.954;2022-09-09T05:08:38;16.90;99.90
64685;DHT22;51109;47.414;18.954;2022-09-09T05:11:19;16.90;99.90
64685;DHT22;51109;47.414;18.954;2022-09-09T05:13:45;16.80;99.90
64685;DHT22;51109;47.414;18.954;2022-09-09T05:16:12;16.80;99.90
64685;DHT22;51109;47.414;18.954;2022-09-09T05:18:39;16.80;99.90
64685;DHT22;51109;47.414;18.954;2022-09-09T05:21:06;16.80;99.90
64685;DHT22;51109;47.414;18.954;2022-09-09T05:23:36;16.90;99.90
64685;DHT22;51109;47.414;18.954;2022-09-09T05:26:03;17.00;99.90
64685;DHT22;51109;47.414;18.954;2022-09-09T05:28:29;17.00;99.90
64685;DHT22;51109;47.414;18.954;2022-09-09T05:31:01;17.10;99.90
64685;DHT22;51109;47.414;18.954;2022-09-09T05:33:29;17.20;99.90
64685;DHT22;51109;47.414;18.954;2022-09-09T05:36:23;17.30;99.90
64685;DHT22;51109;47.414;18.954;2022-09-09T05:38:49;17.40;99.90
64685;DHT22;51109;47.414;18.954;2022-09-09T05:41:16;17.50;99.90
64685;DHT22;51109;47.414;18.954;2022-09-09T05:43:44;17.60;99.90
64685;DHT22;51109;47.414;18.954;2022-09-09T05:46:12;17.70;99.90
64685;DHT22;51109;47.414;18.954;2022-09-09T05:48:40;17.70;99.90
64685;DHT22;51109;47.414;18.954;2022-09-09T05:51:09;17.80;99.90
64685;DHT22;51109;47.414;18.954;2022-09-09T05:53:37;17.80;99.90
64685;DHT22;51109;47.414;18.954;2022-09-09T05:56:11;17.90;99.90
64685;DHT22;51109;47.414;18.954;2022-09-09T05:58:38;18.00;99.90
64685;DHT22;51109;47.414;18.954;2022-09-09T06:01:11;18.10;99.90
64685;DHT22;51109;47.414;18.954;2022-09-09T06:03:40;18.10;99.90
64685;DHT22;51109;47.414;18.954;2022-09-09T06:06:08;18.00;99.90
64685;DHT22;51109;47.414;18.954;2022-09-09T06:08:36;18.00;99.90
64685;DHT22;51109;47.414;18.954;2022-09-09T06:11:05;18.10;99.90
64685;DHT22;51109;47.414;18.954;2022-09-09T06:13:32;18.10;99.90
64685;DHT22;51109;47.414;18.954;2022-09-09T06:15:58;18.00;99.90
64685;DHT22;51109;47.414;18.954;2022-09-09T06:18:28;18.10;99.90
64685;DHT22;51109;47.414;18.954;2022-09-09T06:20:59;18.20;99.90
64685;DHT22;51109;47.414;18.954;2022-09-09T06:23:27;18.30;99.90
64685;DHT22;51109;47.414;18.954;2022-09-09T06:26:10;18.40;99.90
64685;DHT22;51109;47.414;18.954;2022-09-09T06:28:36;18.60;99.90
64685;DHT22;51109;47.414;18.954;2022-09-09T06:31:05;18.70;99.90
64685;DHT22;51109;47.414;18.954;2022-09-09T06:33:35;18.90;99.90
64685;DHT22;51109;47.414;18.954;2022-09-09T06:36:03;19.00;99.90
64685;DHT22;51109;47.414;18.954;2022-09-09T06:38:31;19.20;99.90
64685;DHT22;51109;47.414;18.954;2022-09-09T06:40:59;19.20;99.90
64685;DHT22;51109;47.414;18.954;2022-09-09T06:43:25;19.30;99.90
64685;DHT22;51109;47.414;18.954;2022-09-09T06:45:55;19.30;99.90
64685;DHT22;51109;47.414;18.954;2022-09-09T06:48:21;19.40;99.90
64685;DHT22;51109;47.414;18.954;2022-09-09T06:50:47;19.50;99.90
64685;DHT22;51109;47.414;18.954;2022-09-09T06:53:18;19.50;99.90
64685;DHT22;51109;47.414;18.954;2022-09-09T06:55:46;19.50;99.90
64685;DHT22;51109;47.414;18.954;2022-09-09T06:58:13;19.50;99.90
64685;DHT22;51109;47.414;18.954;2022-09-09T07:00:39;19.50;99.90
64685;DHT22;51109;47.414;18.954;2022-09-09T07:03:05;19.40;99.90
64685;DHT22;51109;47.414;18.954;2022-09-09T07:05:31;19.30;99.90
64685;DHT22;51109;47.414;18.954;2022-09-09T07:07:57;19.30;99.90
64685;DHT22;51109;47.414;18.954;2022-09-09T07:10:24;19.30;99.90
64685;DHT22;51109;47.414;18.954;2022-09-09T07:12:53;19.20;99.90
64685;DHT22;51109;47.414;18.954;2022-09-09T07:15:20;19.20;99.90
64685;DHT22;51109;47.414;18.954;2022-09-09T07:17:47;19.10;99.90
64685;DHT22;51109;47.414;18.954;2022-09-09T07:20:14;19.30;99.90
64685;DHT22;51109;47.414;18.954;2022-09-09T07:22:41;19.60;99.90
64685;DHT22;51109;47.414;18.954;2022-09-09T07:25:08;19.80;99.90
64685;DHT22;51109;47.414;18.954;2022-09-09T07:27:34;20.10;99.90
64685;DHT22;51109;47.414;18.954;2022-09-09T07:30:00;20.10;99.90
64685;DHT22;51109;47.414;18.954;2022-09-09T07:32:27;20.20;99.90
64685;DHT22;51109;47.414;18.954;2022-09-09T07:34:53;20.40;99.90
64685;DHT22;51109;47.414;18.954;2022-09-09T07:37:19;20.50;99.90
64685;DHT22;51109;47.414;18.954;2022-09-09T07:39:44;20.60;99.90
64685;DHT22;51109;47.414;18.954;2022-09-09T07:42:10;20.70;99.90
64685;DHT22;51109;47.414;18.954;2022-09-09T07:44:37;20.80;99.90
64685;DHT22;51109;47.414;18.954;2022-09-09T07:47:05;20.80;99.90
64685;DHT22;51109;47.414;18.954;2022-09-09T07:49:31;20.90;99.90
64685;DHT22;51109;47.414;18.954;2022-09-09T07:51:58;20.90;99.90
64685;DHT22;51109;47.414;18.954;2022-09-09T07:54:24;20.90;99.90
64685;DHT22;51109;47.414;18.954;2022-09-09T07:56:52;21.10;99.90
64685;DHT22;51109;47.414;18.954;2022-09-09T07:59:18;21.20;99.90
64685;DHT22;51109;47.414;18.954;2022-09-09T08:01:46;21.40;99.90
64685;DHT22;51109;47.414;18.954;2022-09-09T08:04:16;21.60;99.90
64685;DHT22;51109;47.414;18.954;2022-09-09T08:06:50;21.70;99.90
64685;DHT22;51109;47.414;18.954;2022-09-09T08:09:19;21.90;99.90
64685;DHT22;51109;47.414;18.954;2022-09-09T08:11:46;22.00;99.90
64685;DHT22;51109;47.414;18.954;2022-09-09T08:14:12;22.00;99.90
64685;DHT22;51109;47.414;18.954;2022-09-09T08:16:47;22.20;99.90
64685;DHT22;51109;47.414;18.954;2022-09-09T08:19:13;22.30;99.90
64685;DHT22;51109;47.414;18.954;2022-09-09T08:21:42;22.40;99.90
64685;DHT22;51109;47.414;18.954;2022-09-09T08:24:09;22.50;99.90
64685;DHT22;51109;47.414;18.954;2022-09-09T08:26:42;22.50;99.90
64685;DHT22;51109;47.414;18.954;2022-09-09T08:29:10;22.60;99.90
64685;DHT22;51109;47.414;18.954;2022-09-09T08:31:39;22.60;99.90
64685;DHT22;51109;47.414;18.954;2022-09-09T08:34:06;22.50;99.90
64685;DHT22;51109;47.414;18.954;2022-09-09T08:36:35;22.60;99.90
64685;DHT22;51109;47.414;18.954;2022-09-09T08:39:03;22.90;99.90
64685;DHT22;51109;47.414;18.954;2022-09-09T08:50:30;23.70;99.90
64685;DHT22;51109;47.414;18.954;2022-09-09T08:56:08;23.90;99.90
64685;DHT22;51109;47.414;18.954;2022-09-09T08:58:45;23.70;99.90
64685;DHT22;51109;47.414;18.954;2022-09-09T09:12:35;24.20;99.90
64685;DHT22;51109;47.414;18.954;2022-09-09T09:15:01;24.30;99.90
64685;DHT22;51109;47.414;18.954;2022-09-09T09:17:28;24.40;99.90
64685;DHT22;51109;47.414;18.954;2022-09-09T09:19:58;24.40;99.90
64685;DHT22;51109;47.414;18.954;2022-09-09T09:22:41;24.50;99.90
64685;DHT22;51109;47.414;18.954;2022-09-09T09:25:22;24.50;99.90
64685;DHT22;51109;47.414;18.954;2022-09-09T09:30:34;24.60;99.90
64685;DHT22;51109;47.414;18.954;2022-09-09T09:33:06;24.80;99.90
64685;DHT22;51109;47.414;18.954;2022-09-09T09:35:34;24.90;99.90
64685;DHT22;51109;47.414;18.954;2022-09-09T09:38:00;24.90;99.90
64685;DHT22;51109;47.414;18.954;2022-09-09T09:40:26;25.10;99.90
64685;DHT22;51109;47.414;18.954;2022-09-09T09:43:02;25.20;99.90
64685;DHT22;51109;47.414;18.954;2022-09-09T09:45:43;25.10;99.90
64685;DHT22;51109;47.414;18.954;2022-09-09T09:48:14;25.10;99.90
64685;DHT22;51109;47.414;18.954;2022-09-09T09:50:55;25.20;99.90
64685;DHT22;51109;47.414;18.954;2022-09-09T09:53:32;25.20;99.90
64685;DHT22;51109;47.414;18.954;2022-09-09T09:56:09;25.20;99.90
64685;DHT22;51109;47.414;18.954;2022-09-09T09:58:50;25.30;99.90
64685;DHT22;51109;47.414;18.954;2022-09-09T10:01:31;25.50;99.90
64685;DHT22;51109;47.414;18.954;2022-09-09T10:04:22;25.40;99.90
64685;DHT22;51109;47.414;18.954;2022-09-09T10:06:50;25.40;99.90
64685;DHT22;51109;47.414;18.954;2022-09-09T10:09:27;25.50;99.90
64685;DHT22;51109;47.414;18.954;2022-09-09T10:17:22;25.90;99.90
64685;DHT22;51109;47.414;18.954;2022-09-09T10:22:45;26.10;99.90
64685;DHT22;51109;47.414;18.954;2022-09-09T10:30:47;26.10;99.90
64685;DHT22;51109;47.414;18.954;2022-09-09T10:33:42;26.10;99.90
64685;DHT22;51109;47.414;18.954;2022-09-09T10:38:52;26.10;99.90
64685;DHT22;51109;47.414;18.954;2022-09-09T10:42:18;26.20;99.90
64685;DHT22;51109;47.414;18.954;2022-09-09T10:45:20;26.20;99.90
64685;DHT22;51109;47.414;18.954;2022-09-09T10:48:11;26.30;99.90
64685;DHT22;51109;47.414;18.954;2022-09-09T10:51:06;26.30;99.90
64685;DHT22;51109;47.414;18.954;2022-09-09T10:56:01;26.30;99.90
64685;DHT22;51109;47.414;18.954;2022-09-09T10:58:56;26.40;99.90
64685;DHT22;51109;47.414;18.954;2022-09-09T11:01:27;26.50;99.90
64685;DHT22;51109;47.414;18.954;2022-09-09T11:04:04;26.50;99.90
64685;DHT22;51109;47.414;18.954;2022-09-09T11:06:38;26.40;99.90
64685;DHT22;51109;47.414;18.954;2022-09-09T11:09:05;26.40;99.90
64685;DHT22;51109;47.414;18.954;2022-09-09T11:11:53;26.50;99.90
64685;DHT22;51109;47.414;18.954;2022-09-09T11:14:34;26.60;99.90
64685;DHT22;51109;47.414;18.954;2022-09-09T11:17:30;26.80;99.90
64685;DHT22;51109;47.414;18.954;2022-09-09T11:19:59;27.00;99.90
64685;DHT22;51109;47.414;18.954;2022-09-09T11:22:42;27.20;99.90
64685;DHT22;51109;47.414;18.954;2022-09-09T11:25:31;27.20;99.90
64685;DHT22;51109;47.414;18.954;2022-09-09T11:39:19;27.10;99.90
64685;DHT22;51109;47.414;18.954;2022-09-09T11:41:49;27.10;99.90
64685;DHT22;51109;47.414;18.954;2022-09-09T11:44:26;27.00;99.90
64685;DHT22;51109;47.414;18.954;2022-09-09T11:46:53;26.70;99.90
64685;DHT22;51109;47.414;18.954;2022-09-09T11:49:29;26.50;99.90
64685;DHT22;51109;47.414;18.954;2022-09-09T11:52:36;26.40;99.90
64685;DHT22;51109;47.414;18.954;2022-09-09T11:58:01;26.40;99.90
64685;DHT22;51109;47.414;18.954;2022-09-09T12:00:45;26.40;99.90
64685;DHT22;51109;47.414;18.954;2022-09-09T12:06:17;26.10;99.90
64685;DHT22;51109;47.414;18.954;2022-09-09T12:08:48;26.20;99.90
64685;DHT22;51109;47.414;18.954;2022-09-09T12:11:29;26.30;99.90
64685;DHT22;51109;47.414;18.954;2022-09-09T12:13:58;26.30;99.90
64685;DHT22;51109;47.414;18.954;2022-09-09T12:16:30;26.30;99.90
64685;DHT22;51109;47.414;18.954;2022-09-09T12:19:16;26.60;99.90
64685;DHT22;51109;47.414;18.954;2022-09-09T12:21:59;26.60;99.90
64685;DHT22;51109;47.414;18.954;2022-09-09T12:24:40;26.80;99.90
64685;DHT22;51109;47.414;18.954;2022-09-09T12:30:04;27.00;99.90
64685;DHT22;51109;47.414;18.954;2022-09-09T12:32:35;26.80;99.90
64685;DHT22;51109;47.414;18.954;2022-09-09T12:35:10;26.70;99.90
64685;DHT22;51109;47.414;18.954;2022-09-09T12:40:22;26.70;99.90
64685;DHT22;51109;47.414;18.954;2022-09-09T12:42:48;26.90;99.90
64685;DHT22;51109;47.414;18.954;2022-09-09T12:50:26;27.30;99.90
64685;DHT22;51109;47.414;18.954;2022-09-09T12:52:59;27.50;99.90
64685;DHT22;51109;47.414;18.954;2022-09-09T12:55:31;27.70;99.90
64685;DHT22;51109;47.414;18.954;2022-09-09T12:57:59;27.50;99.90
64685;DHT22;51109;47.414;18.954;2022-09-09T13:00:26;27.50;99.90
64685;DHT22;51109;47.414;18.954;2022-09-09T13:03:02;27.50;99.90
64685;DHT22;51109;47.414;18.954;2022-09-09T13:05:34;27.60;99.90
64685;DHT22;51109;47.414;18.954;2022-09-09T13:08:04;27.80;99.90
64685;DHT22;51109;47.414;18.954;2022-09-09T13:10:37;27.90;99.90
64685;DHT22;51109;47.414;18.954;2022-09-09T13:13:14;27.90;99.90
64685;DHT22;51109;47.414;18.954;2022-09-09T13:15:52;28.00;99.90
64685;DHT22;51109;47.414;18.954;2022-09-09T13:18:23;27.90;99.90
64685;DHT22;51109;47.414;18.954;2022-09-09T13:20:50;27.90;99.90
64685;DHT22;51109;47.414;18.954;2022-09-09T13:23:19;27.90;99.90
64685;DHT22;51109;47.414;18.954;2022-09-09T13:25:57;27.80;99.90
64685;DHT22;51109;47.414;18.954;2022-09-09T13:28:26;27.70;99.90
64685;DHT22;51109;47.414;18.954;2022-09-09T13:33:30;27.70;99.90
64685;DHT22;51109;47.414;18.954;2022-09-09T13:38:25;27.60;99.90
64685;DHT22;51109;47.414;18.954;2022-09-09T13:41:07;27.40;99.90
64685;DHT22;51109;47.414;18.954;2022-09-09T13:43:43;27.20;99.90
64685;DHT22;51109;47.414;18.954;2022-09-09T13:49:03;26.90;99.90
64685;DHT22;51109;47.414;18.954;2022-09-09T13:51:45;26.90;99.90
64685;DHT22;51109;47.414;18.954;2022-09-09T13:54:14;26.90;99.90
64685;DHT22;51109;47.414;18.954;2022-09-09T13:56:42;26.90;99.90
64685;DHT22;51109;47.414;18.954;2022-09-09T13:59:16;26.90;99.90
64685;DHT22;51109;47.414;18.954;2022-09-09T14:01:44;26.90;99.90
64685;DHT22;51109;47.414;18.954;2022-09-09T14:04:10;26.80;99.90
64685;DHT22;51109;47.414;18.954;2022-09-09T14:06:37;26.80;99.90
64685;DHT22;51109;47.414;18.954;2022-09-09T14:09:13;26.60;99.90
64685;DHT22;51109;47.414;18.954;2022-09-09T14:11:40;26.50;99.90
64685;DHT22;51109;47.414;18.954;2022-09-09T14:14:06;26.50;99.90
64685;DHT22;51109;47.414;18.954;2022-09-09T14:16:33;26.40;99.90
64685;DHT22;51109;47.414;18.954;2022-09-09T14:18:58;26.30;99.90
64685;DHT22;51109;47.414;18.954;2022-09-09T14:21:25;26.40;99.90
64685;DHT22;51109;47.414;18.954;2022-09-09T14:23:52;26.40;99.90
64685;DHT22;51109;47.414;18.954;2022-09-09T14:26:21;26.40;99.90
64685;DHT22;51109;47.414;18.954;2022-09-09T14:28:47;26.40;99.90
64685;DHT22;51109;47.414;18.954;2022-09-09T14:31:14;26.40;99.90
64685;DHT22;51109;47.414;18.954;2022-09-09T14:33:40;26.40;99.90
64685;DHT22;51109;47.414;18.954;2022-09-09T14:36:06;26.30;99.90
64685;DHT22;51109;47.414;18.954;2022-09-09T14:38:35;26.30;99.90
64685;DHT22;51109;47.414;18.954;2022-09-09T14:41:13;26.40;99.90
64685;DHT22;51109;47.414;18.954;2022-09-09T14:43:42;26.40;99.90
64685;DHT22;51109;47.414;18.954;2022-09-09T14:46:11;26.40;99.90
64685;DHT22;51109;47.414;18.954;2022-09-09T14:48:37;26.30;99.90
64685;DHT22;51109;47.414;18.954;2022-09-09T14:53:33;26.30;99.90
64685;DHT22;51109;47.414;18.954;2022-09-09T14:56:14;26.20;99.90
64685;DHT22;51109;47.414;18.954;2022-09-09T14:58:40;26.30;99.90
64685;DHT22;51109;47.414;18.954;2022-09-09T15:01:08;26.40;99.90
64685;DHT22;51109;47.414;18.954;2022-09-09T15:03:38;26.40;99.90
64685;DHT22;51109;47.414;18.954;2022-09-09T15:06:12;26.40;99.90
64685;DHT22;51109;47.414;18.954;2022-09-09T15:08:41;26.40;99.90
64685;DHT22;51109;47.414;18.954;2022-09-09T15:11:07;26.40;99.90
64685;DHT22;51109;47.414;18.954;2022-09-09T15:13:34;26.40;99.90
64685;DHT22;51109;47.414;18.954;2022-09-09T15:16:28;26.50;99.90
64685;DHT22;51109;47.414;18.954;2022-09-09T15:18:56;26.50;99.90
64685;DHT22;51109;47.414;18.954;2022-09-09T15:21:28;26.50;99.90
64685;DHT22;51109;47.414;18.954;2022-09-09T15:23:55;26.40;99.90
64685;DHT22;51109;47.414;18.954;2022-09-09T15:26:21;26.40;99.90
64685;DHT22;51109;47.414;18.954;2022-09-09T15:28:47;26.50;99.90
64685;DHT22;51109;47.414;18.954;2022-09-09T15:31:20;26.60;99.90
64685;DHT22;51109;47.414;18.954;2022-09-09T15:33:52;26.50;99.90
64685;DHT22;51109;47.414;18.954;2022-09-09T15:36:21;26.40;99.90
64685;DHT22;51109;47.414;18.954;2022-09-09T15:38:48;26.30;99.90
64685;DHT22;51109;47.414;18.954;2022-09-09T15:41:15;26.30;99.90
64685;DHT22;51109;47.414;18.954;2022-09-09T15:43:51;26.20;99.90
64685;DHT22;51109;47.414;18.954;2022-09-09T15:48:54;26.10;99.90
64685;DHT22;51109;47.414;18.954;2022-09-09T15:51:21;26.10;99.90
64685;DHT22;51109;47.414;18.954;2022-09-09T15:53:53;26.00;99.90
64685;DHT22;51109;47.414;18.954;2022-09-09T15:56:20;25.90;99.90
64685;DHT22;51109;47.414;18.954;2022-09-09T15:58:46;25.90;99.90
64685;DHT22;51109;47.414;18.954;2022-09-09T16:01:12;25.80;99.90
64685;DHT22;51109;47.414;18.954;2022-09-09T16:03:42;25.90;99.90
64685;DHT22;51109;47.414;18.954;2022-09-09T16:06:09;26.00;99.90
64685;DHT22;51109;47.414;18.954;2022-09-09T16:08:37;25.90;99.90
64685;DHT22;51109;47.414;18.954;2022-09-09T16:11:07;25.90;99.90
64685;DHT22;51109;47.414;18.954;2022-09-09T16:13:36;25.90;99.90
64685;DHT22;51109;47.414;18.954;2022-09-09T16:16:03;25.80;99.90
64685;DHT22;51109;47.414;18.954;2022-09-09T16:18:43;25.70;99.90
64685;DHT22;51109;47.414;18.954;2022-09-09T16:21:16;25.50;99.90
64685;DHT22;51109;47.414;18.954;2022-09-09T16:23:42;25.40;99.90
64685;DHT22;51109;47.414;18.954;2022-09-09T16:26:15;25.30;99.90
64685;DHT22;51109;47.414;18.954;2022-09-09T16:28:41;25.30;99.90
64685;DHT22;51109;47.414;18.954;2022-09-09T16:31:15;25.30;99.90
64685;DHT22;51109;47.414;18.954;2022-09-09T16:33:42;25.20;99.90
64685;DHT22;51109;47.414;18.954;2022-09-09T16:36:09;25.10;99.90
64685;DHT22;51109;47.414;18.954;2022-09-09T16:38:38;24.90;99.90
64685;DHT22;51109;47.414;18.954;2022-09-09T16:41:05;24.70;99.90
64685;DHT22;51109;47.414;18.954;2022-09-09T16:43:33;24.60;99.90
64685;DHT22;51109;47.414;18.954;2022-09-09T16:45:59;24.60;99.90
64685;DHT22;51109;47.414;18.954;2022-09-09T16:48:32;24.60;99.90
64685;DHT22;51109;47.414;18.954;2022-09-09T16:51:23;24.60;99.90
64685;DHT22;51109;47.414;18.954;2022-09-09T16:53:50;24.50;99.90
64685;DHT22;51109;47.414;18.954;2022-09-09T16:56:20;24.40;99.90
64685;DHT22;51109;47.414;18.954;2022-09-09T16:58:51;24.30;99.90
64685;DHT22;51109;47.414;18.954;2022-09-09T17:01:17;24.10;99.90
64685;DHT22;51109;47.414;18.954;2022-09-09T17:03:43;24.00;99.90
64685;DHT22;51109;47.414;18.954;2022-09-09T17:06:13;23.80;99.90
64685;DHT22;51109;47.414;18.954;2022-09-09T17:08:40;23.70;99.90
64685;DHT22;51109;47.414;18.954;2022-09-09T17:11:14;23.60;99.90
64685;DHT22;51109;47.414;18.954;2022-09-09T17:13:42;23.60;99.90
64685;DHT22;51109;47.414;18.954;2022-09-09T17:16:09;23.60;99.90
64685;DHT22;51109;47.414;18.954;2022-09-09T17:18:36;23.60;99.90
64685;DHT22;51109;47.414;18.954;2022-09-09T17:21:07;23.40;99.90
64685;DHT22;51109;47.414;18.954;2022-09-09T17:23:35;23.30;99.90
64685;DHT22;51109;47.414;18.954;2022-09-09T17:26:09;23.20;99.90
64685;DHT22;51109;47.414;18.954;2022-09-09T17:28:39;23.10;99.90
64685;DHT22;51109;47.414;18.954;2022-09-09T17:31:09;23.20;99.90
64685;DHT22;51109;47.414;18.954;2022-09-09T17:33:38;23.10;99.90
64685;DHT22;51109;47.414;18.954;2022-09-09T17:36:19;23.00;99.90
64685;DHT22;51109;47.414;18.954;2022-09-09T17:38:47;23.00;99.90
64685;DHT22;51109;47.414;18.954;2022-09-09T17:41:17;23.00;99.90
64685;DHT22;51109;47.414;18.954;2022-09-09T17:43:43;23.00;99.90
64685;DHT22;51109;47.414;18.954;2022-09-09T17:46:15;23.00;99.90
64685;DHT22;51109;47.414;18.954;2022-09-09T17:48:42;23.00;99.90
64685;DHT22;51109;47.414;18.954;2022-09-09T17:51:12;23.00;99.90
64685;DHT22;51109;47.414;18.954;2022-09-09T17:53:43;23.00;99.90
64685;DHT22;51109;47.414;18.954;2022-09-09T17:56:12;23.10;99.90
64685;DHT22;51109;47.414;18.954;2022-09-09T17:58:39;23.10;99.90
64685;DHT22;51109;47.414;18.954;2022-09-09T18:01:28;23.00;99.90
64685;DHT22;51109;47.414;18.954;2022-09-09T18:03:56;22.90;99.90